createdAt,value
2022-08-10T00:01:53.588Z,20.16
2022-08-10T00:04:24.837Z,20.11
2022-08-10T00:06:55.301Z,20.08
2022-08-10T00:09:25.693Z,20.09
2022-08-10T00:11:54.792Z,20.01
2022-08-10T00:14:23.810Z,20.04
2022-08-10T00:16:53.858Z,19.98
2022-08-10T00:19:22.409Z,19.94
2022-08-10T00:21:52.259Z,19.96
2022-08-10T00:24:20.874Z,19.91
2022-08-10T00:27:57.933Z,19.83
2022-08-10T00:29:39.365Z,19.83
2022-08-10T00:32:09.471Z,19.85
2022-08-10T00:34:38.037Z,19.78
2022-08-10T00:37:06.774Z,19.79
2022-08-10T00:39:39.531Z,19.76
2022-08-10T00:42:10.134Z,19.76
2022-08-10T00:44:41.895Z,19.71
2022-08-10T00:47:36.009Z,19.70
2022-08-10T00:50:03.411Z,19.64
2022-08-10T00:52:33.516Z,19.59
2022-08-10T00:55:05.313Z,19.52
2022-08-10T00:57:36.381Z,19.52
2022-08-10T01:00:10.134Z,19.42
2022-08-10T01:02:41.328Z,19.39
2022-08-10T01:05:15.418Z,19.38
2022-08-10T01:08:11.709Z,19.37
2022-08-10T01:10:53.592Z,19.30
2022-08-10T01:13:30.551Z,19.24
2022-08-10T01:16:13.918Z,19.14
2022-08-10T01:18:54.807Z,19.03
2022-08-10T01:22:10.147Z,19.02
2022-08-10T01:25:10.648Z,18.97
2022-08-10T01:27:56.816Z,18.98
2022-08-10T01:30:34.457Z,19.01
2022-08-10T01:33:10.874Z,19.00
2022-08-10T01:35:48.317Z,19.00
2022-08-10T01:38:23.448Z,18.95
2022-08-10T01:40:58.967Z,18.85
2022-08-10T01:43:33.621Z,18.73
2022-08-10T01:46:06.855Z,18.75
2022-08-10T01:48:42.347Z,18.79
2022-08-10T01:51:18.789Z,18.76
2022-08-10T01:53:58.892Z,18.64
2022-08-10T01:56:31.764Z,18.70
2022-08-10T01:59:07.650Z,18.65
2022-08-10T02:01:44.555Z,18.65
2022-08-10T02:04:18.386Z,18.63
2022-08-10T02:06:56.934Z,18.65
2022-08-10T02:09:32.326Z,18.64
2022-08-10T02:12:13.403Z,18.46
2022-08-10T02:14:48.656Z,18.48
2022-08-10T02:17:59.718Z,18.43
2022-08-10T02:20:19.668Z,18.37
2022-08-10T02:22:57.565Z,18.35
2022-08-10T02:25:39.952Z,18.35
2022-08-10T02:28:29.882Z,18.35
2022-08-10T02:31:06.155Z,18.28
2022-08-10T02:33:56.557Z,18.20
2022-08-10T02:36:33.239Z,18.17
2022-08-10T02:39:06.103Z,18.09
2022-08-10T02:45:15.762Z,18.10
2022-08-10T02:45:16.177Z,18.06
2022-08-10T02:47:50.951Z,18.09
2022-08-10T02:50:29.589Z,18.08
2022-08-10T02:53:06.714Z,18.06
2022-08-10T02:55:46.863Z,18.04
2022-08-10T02:58:27.342Z,17.94
2022-08-10T03:01:01.083Z,17.87
2022-08-10T03:03:44.773Z,17.84
2022-08-10T03:06:21.892Z,17.84
2022-08-10T03:08:53.692Z,17.80
2022-08-10T03:12:36.473Z,17.83
2022-08-10T03:14:27.264Z,17.86
2022-08-10T03:16:58.020Z,17.83
2022-08-10T03:20:35.738Z,17.76
2022-08-10T03:22:21.468Z,17.73
2022-08-10T03:24:52.277Z,17.66
2022-08-10T03:27:21.883Z,17.70
2022-08-10T03:30:31.733Z,17.72
2022-08-10T03:32:42.730Z,17.67
2022-08-10T03:35:13.533Z,17.62
2022-08-10T03:37:44.478Z,17.53
2022-08-10T03:40:15.551Z,17.49
2022-08-10T03:42:48.022Z,17.45
2022-08-10T03:45:18.538Z,17.48
2022-08-10T03:47:50.486Z,17.45
2022-08-10T03:50:45.758Z,17.45
2022-08-10T03:53:25.118Z,17.41
2022-08-10T03:56:30.232Z,17.40
2022-08-10T03:58:51.441Z,17.28
2022-08-10T04:01:21.933Z,17.20
2022-08-10T04:04:12.443Z,17.21
2022-08-10T04:06:43.465Z,17.22
2022-08-10T04:09:17.000Z,17.17
2022-08-10T04:11:47.553Z,17.13
2022-08-10T04:14:37.870Z,17.16
2022-08-10T04:17:08.466Z,17.18
2022-08-10T04:19:47.111Z,17.14
2022-08-10T04:22:20.544Z,17.05
2022-08-10T04:24:58.886Z,16.98
2022-08-10T04:27:28.133Z,16.96
2022-08-10T04:29:58.647Z,16.92
2022-08-10T04:32:31.445Z,16.89
2022-08-10T04:35:04.321Z,16.82
2022-08-10T04:37:37.400Z,16.78
2022-08-10T04:40:29.292Z,16.76
2022-08-10T04:43:11.938Z,16.81
2022-08-10T04:45:50.567Z,16.72
2022-08-10T04:48:42.425Z,16.68
2022-08-10T04:51:19.343Z,16.67
2022-08-10T04:54:04.518Z,16.64
2022-08-10T04:56:39.490Z,16.78
2022-08-10T04:59:12.088Z,16.80
2022-08-10T05:02:29.351Z,16.78
2022-08-10T05:04:38.204Z,16.72
2022-08-10T05:07:11.034Z,16.72
2022-08-10T05:10:01.662Z,16.77
2022-08-10T05:12:37.428Z,16.79
2022-08-10T05:15:09.993Z,16.85
2022-08-10T05:17:41.330Z,16.86
2022-08-10T05:20:30.938Z,16.88
2022-08-10T05:22:59.940Z,16.91
2022-08-10T05:25:28.869Z,16.92
2022-08-10T05:28:06.314Z,16.95
2022-08-10T05:30:35.525Z,16.97
2022-08-10T05:33:08.582Z,16.97
2022-08-10T05:35:56.444Z,16.98
2022-08-10T05:38:28.817Z,17.01
2022-08-10T05:40:58.799Z,17.05
2022-08-10T05:43:30.215Z,17.10
2022-08-10T05:46:17.054Z,17.17
2022-08-10T05:48:56.617Z,17.24
2022-08-10T05:51:31.643Z,17.32
2022-08-10T05:54:06.159Z,17.38
2022-08-10T05:56:57.034Z,17.42
2022-08-10T06:00:29.473Z,17.46
2022-08-10T06:02:35.280Z,17.48
2022-08-10T06:05:11.037Z,17.53
2022-08-10T06:07:45.978Z,17.57
2022-08-10T06:10:30.008Z,17.59
2022-08-10T06:13:29.899Z,17.66
2022-08-10T06:16:06.686Z,17.73
2022-08-10T06:18:38.432Z,17.78
2022-08-10T06:21:09.726Z,17.82
2022-08-10T06:23:40.134Z,17.88
2022-08-10T06:26:14.117Z,17.93
2022-08-10T06:28:54.060Z,18.00
2022-08-10T06:31:46.888Z,18.06
2022-08-10T06:34:20.608Z,18.12
2022-08-10T06:36:50.852Z,18.19
2022-08-10T06:39:36.483Z,18.25
2022-08-10T06:42:18.082Z,18.34
2022-08-10T06:44:56.459Z,18.43
2022-08-10T06:47:33.818Z,18.51
2022-08-10T06:50:17.415Z,18.62
2022-08-10T06:53:07.052Z,18.73
2022-08-10T06:55:50.071Z,18.81
2022-08-10T06:58:30.316Z,18.89
2022-08-10T07:01:03.031Z,19.00
2022-08-10T07:03:44.112Z,19.12
2022-08-10T07:06:16.083Z,19.18
2022-08-10T07:08:47.247Z,19.26
2022-08-10T07:11:18.191Z,19.33
2022-08-10T07:14:14.384Z,19.42
2022-08-10T07:16:42.721Z,19.52
2022-08-10T07:19:15.477Z,19.62
2022-08-10T07:21:46.468Z,19.71
2022-08-10T07:24:17.925Z,19.81
2022-08-10T07:26:50.500Z,19.92
2022-08-10T07:29:52.668Z,20.02
2022-08-10T07:32:14.530Z,20.11
2022-08-10T07:34:48.113Z,20.20
2022-08-10T07:37:18.216Z,20.29
2022-08-10T07:39:59.552Z,20.38
2022-08-10T07:42:40.903Z,20.46
2022-08-10T07:45:13.974Z,20.54
2022-08-10T07:47:53.861Z,20.66
2022-08-10T07:50:28.321Z,20.75
2022-08-10T07:53:05.111Z,20.86
2022-08-10T07:56:03.630Z,20.98
2022-08-10T07:58:30.017Z,21.09
2022-08-10T08:01:01.765Z,21.18
2022-08-10T08:03:32.299Z,21.28
2022-08-10T08:06:11.885Z,21.36
2022-08-10T08:08:45.855Z,21.47
2022-08-10T08:11:25.990Z,21.56
2022-08-10T08:13:57.335Z,21.64
2022-08-10T08:16:26.820Z,21.71
2022-08-10T08:19:26.376Z,21.79
2022-08-10T08:24:10.319Z,21.88
2022-08-10T08:24:41.804Z,21.99
2022-08-10T08:27:15.220Z,22.08
2022-08-10T08:29:48.032Z,22.21
2022-08-10T08:32:22.324Z,22.31
2022-08-10T08:34:57.959Z,22.45
2022-08-10T08:38:33.407Z,22.59
2022-08-10T08:40:28.358Z,22.74
2022-08-10T08:43:35.829Z,22.87
2022-08-10T08:46:59.142Z,23.03
2022-08-10T08:50:18.433Z,23.17
2022-08-10T08:53:21.612Z,23.27
2022-08-10T08:56:05.736Z,23.43
2022-08-10T08:58:49.558Z,23.55
2022-08-10T09:01:40.959Z,23.63
2022-08-10T09:04:30.998Z,23.69
2022-08-10T09:08:01.996Z,23.75
2022-08-10T09:10:49.403Z,23.80
2022-08-10T09:13:29.951Z,23.86
2022-08-10T09:16:26.077Z,23.90
2022-08-10T09:19:06.561Z,23.95
2022-08-10T09:21:58.742Z,23.98
2022-08-10T09:24:47.669Z,24.03
2022-08-10T09:27:23.930Z,24.10
2022-08-10T09:29:59.055Z,24.19
2022-08-10T09:36:16.527Z,24.27
2022-08-10T09:36:23.687Z,24.35
2022-08-10T09:39:04.144Z,24.46
2022-08-10T09:41:46.875Z,24.51
2022-08-10T09:44:32.937Z,24.57
2022-08-10T09:48:00.769Z,24.59
2022-08-10T09:50:30.097Z,24.60
2022-08-10T09:53:17.787Z,24.63
2022-08-10T09:56:19.106Z,24.70
2022-08-10T09:59:27.130Z,24.80
2022-08-10T10:02:20.292Z,24.88
2022-08-10T10:05:09.025Z,24.95
2022-08-10T10:07:54.887Z,24.99
2022-08-10T10:10:34.690Z,25.04
2022-08-10T10:13:13.207Z,25.12
2022-08-10T10:15:54.543Z,25.17
2022-08-10T10:18:43.212Z,25.25
2022-08-10T10:21:24.087Z,25.35
2022-08-10T10:24:26.775Z,25.44
2022-08-10T10:27:01.236Z,25.43
2022-08-10T10:29:58.613Z,25.46
2022-08-10T10:32:45.959Z,25.53
2022-08-10T10:35:28.069Z,25.59
2022-08-10T10:38:10.239Z,25.69
2022-08-10T10:40:47.790Z,25.79
2022-08-10T10:43:40.667Z,25.81
2022-08-10T10:46:25.082Z,25.88
2022-08-10T10:49:08.345Z,25.94
2022-08-10T10:51:51.302Z,25.98
2022-08-10T10:54:38.656Z,25.98
2022-08-10T10:57:18.778Z,25.98
2022-08-10T11:00:07.666Z,26.06
2022-08-10T11:03:22.846Z,26.12
2022-08-10T11:06:09.670Z,26.13
2022-08-10T11:08:52.294Z,26.17
2022-08-10T11:12:01.246Z,26.24
2022-08-10T11:14:30.098Z,26.25
2022-08-10T11:17:06.534Z,26.26
2022-08-10T11:20:02.925Z,26.29
2022-08-10T11:22:40.612Z,26.33
2022-08-10T11:25:21.145Z,26.29
2022-08-10T11:28:00.739Z,26.30
2022-08-10T11:30:41.156Z,26.27
2022-08-10T11:33:30.745Z,26.32
2022-08-10T11:36:08.673Z,26.40
2022-08-10T11:39:13.113Z,26.49
2022-08-10T11:42:12.553Z,26.53
2022-08-10T11:44:50.622Z,26.55
2022-08-10T11:47:23.587Z,26.54
2022-08-10T11:50:01.489Z,26.56
2022-08-10T11:52:41.291Z,26.60
2022-08-10T11:55:20.077Z,26.64
2022-08-10T11:57:55.755Z,26.70
2022-08-10T12:00:29.603Z,26.72
2022-08-10T12:03:07.503Z,26.83
2022-08-10T12:05:52.216Z,26.85
2022-08-10T12:10:03.032Z,26.82
2022-08-10T12:11:24.787Z,26.81
2022-08-10T12:14:22.821Z,26.83
2022-08-10T12:17:00.921Z,26.85
2022-08-10T12:19:59.944Z,26.89
2022-08-10T12:22:37.515Z,26.98
2022-08-10T12:25:49.672Z,27.03
2022-08-10T12:28:12.156Z,27.02
2022-08-10T12:30:52.105Z,27.06
2022-08-10T12:33:27.365Z,27.15
2022-08-10T12:36:18.321Z,27.20
2022-08-10T12:39:02.987Z,27.20
2022-08-10T12:41:43.752Z,27.23
2022-08-10T12:44:20.275Z,27.27
2022-08-10T12:47:10.542Z,27.30
2022-08-10T12:50:21.639Z,27.33
2022-08-10T12:52:56.504Z,27.41
2022-08-10T12:55:28.722Z,27.49
2022-08-10T12:57:59.803Z,27.59
2022-08-10T13:00:33.452Z,27.63
2022-08-10T13:03:08.086Z,27.67
2022-08-10T13:06:00.367Z,27.72
2022-08-10T13:08:45.454Z,27.79
2022-08-10T13:12:37.310Z,27.86
2022-08-10T13:14:14.954Z,27.93
2022-08-10T13:16:48.621Z,27.99
2022-08-10T13:19:21.925Z,28.02
2022-08-10T13:21:53.773Z,28.06
2022-08-10T13:24:30.224Z,28.11
2022-08-10T13:27:25.032Z,28.13
2022-08-10T13:30:05.587Z,28.16
2022-08-10T13:32:38.104Z,28.20
2022-08-10T13:35:13.665Z,28.21
2022-08-10T13:37:46.265Z,28.25
2022-08-10T13:40:20.966Z,28.33
2022-08-10T13:42:52.649Z,28.38
2022-08-10T13:45:24.414Z,28.44
2022-08-10T13:48:07.735Z,28.50
2022-08-10T13:50:40.794Z,28.55
2022-08-10T13:53:16.065Z,28.66
2022-08-10T13:55:54.625Z,28.75
2022-08-10T13:58:30.945Z,28.79
2022-08-10T14:01:02.778Z,28.82
2022-08-10T14:03:39.350Z,28.90
2022-08-10T14:06:14.677Z,28.97
2022-08-10T14:08:51.423Z,29.06
2022-08-10T14:11:23.674Z,29.17
2022-08-10T14:13:58.127Z,29.29
2022-08-10T14:16:27.561Z,29.39
2022-08-10T14:19:01.609Z,29.46
2022-08-10T14:21:31.739Z,29.51
2022-08-10T14:24:00.426Z,29.60
2022-08-10T14:26:32.181Z,29.67
2022-08-10T14:29:07.875Z,29.70
2022-08-10T14:32:00.528Z,29.68
2022-08-10T14:36:14.765Z,29.70
2022-08-10T14:37:38.067Z,29.83
2022-08-10T14:40:12.773Z,29.91
2022-08-10T14:42:50.485Z,30.02
2022-08-10T14:45:25.878Z,30.13
2022-08-10T14:48:01.703Z,30.24
2022-08-10T14:50:33.440Z,30.27
2022-08-10T14:53:10.294Z,30.35
2022-08-10T14:55:58.670Z,30.44
2022-08-10T14:58:34.832Z,30.53
2022-08-10T15:01:06.684Z,30.54
2022-08-10T15:04:01.049Z,30.67
2022-08-10T15:06:54.015Z,30.68
2022-08-10T15:09:37.324Z,30.78
2022-08-10T15:12:24.996Z,30.90
2022-08-10T15:15:01.219Z,31.00
2022-08-10T15:17:35.117Z,31.05
2022-08-10T15:20:14.943Z,31.06
2022-08-10T15:22:51.279Z,31.14
2022-08-10T15:25:26.051Z,31.20
2022-08-10T15:28:05.546Z,31.26
2022-08-10T15:30:43.015Z,31.32
2022-08-10T15:33:59.333Z,31.36
2022-08-10T15:36:43.948Z,31.35
2022-08-10T15:40:20.915Z,31.33
2022-08-10T15:42:23.658Z,31.29
2022-08-10T15:44:55.655Z,31.25
2022-08-10T15:47:45.980Z,31.16
2022-08-10T15:50:22.976Z,31.08
2022-08-10T15:53:02.913Z,31.04
2022-08-10T15:55:44.144Z,31.04
2022-08-10T15:58:37.703Z,30.99
2022-08-10T16:02:14.286Z,30.95
2022-08-10T16:04:12.814Z,30.93
2022-08-10T16:06:49.874Z,30.85
2022-08-10T16:10:22.197Z,30.71
2022-08-10T16:12:30.038Z,30.63
2022-08-10T16:15:08.018Z,30.61
2022-08-10T16:17:54.699Z,30.55
2022-08-10T16:20:31.373Z,30.50
2022-08-10T16:23:06.129Z,30.48
2022-08-10T16:25:48.572Z,30.42
2022-08-10T16:28:24.196Z,30.36
2022-08-10T16:30:57.987Z,30.26
2022-08-10T16:33:53.837Z,30.25
2022-08-10T16:36:23.331Z,30.23
2022-08-10T16:38:54.214Z,30.26
2022-08-10T16:42:05.276Z,30.21
2022-08-10T16:44:20.956Z,30.13
2022-08-10T16:46:52.103Z,30.09
2022-08-10T16:49:26.289Z,30.04
2022-08-10T16:51:57.268Z,30.05
2022-08-10T16:54:28.921Z,30.04
2022-08-10T16:57:04.213Z,30.04
2022-08-10T16:59:42.756Z,29.99
2022-08-10T17:02:19.863Z,29.98
2022-08-10T17:04:50.384Z,29.94
2022-08-10T17:07:25.325Z,29.89
2022-08-10T17:10:07.733Z,29.90
2022-08-10T17:12:40.865Z,29.86
2022-08-10T17:15:11.735Z,29.83
2022-08-10T17:17:48.461Z,29.80
2022-08-10T17:20:32.014Z,29.75
2022-08-10T17:23:06.639Z,29.68
2022-08-10T17:25:48.663Z,29.60
2022-08-10T17:28:35.368Z,29.55
2022-08-10T17:31:53.245Z,29.50
2022-08-10T17:34:12.575Z,29.45
2022-08-10T17:36:48.692Z,29.38
2022-08-10T17:39:23.753Z,29.27
2022-08-10T17:41:56.614Z,29.30
2022-08-10T17:44:28.257Z,29.22
2022-08-10T17:46:58.174Z,29.13
2022-08-10T17:49:34.554Z,29.10
2022-08-10T17:52:06.900Z,29.06
2022-08-10T17:54:40.689Z,29.04
2022-08-10T17:57:21.117Z,29.02
2022-08-10T17:59:53.760Z,28.97
2022-08-10T18:02:27.546Z,28.88
2022-08-10T18:05:00.809Z,28.81
2022-08-10T18:07:35.744Z,28.78
2022-08-10T18:10:06.959Z,28.74
2022-08-10T18:12:45.107Z,28.70
2022-08-10T18:15:19.147Z,28.67
2022-08-10T18:17:58.306Z,28.64
2022-08-10T18:20:39.419Z,28.58
2022-08-10T18:23:10.541Z,28.51
2022-08-10T18:25:43.904Z,28.47
2022-08-10T18:28:20.950Z,28.38
2022-08-10T18:30:53.166Z,28.30
2022-08-10T18:33:30.598Z,28.24
2022-08-10T18:36:06.411Z,28.16
2022-08-10T18:38:40.095Z,28.09
2022-08-10T18:41:16.580Z,27.98
2022-08-10T18:44:05.835Z,27.88
2022-08-10T18:46:50.661Z,27.75
2022-08-10T18:49:31.658Z,27.68
2022-08-10T18:52:08.171Z,27.54
2022-08-10T18:54:47.457Z,27.47
2022-08-10T18:57:36.009Z,27.40
2022-08-10T19:00:13.256Z,27.27
2022-08-10T19:03:26.109Z,27.12
2022-08-10T19:06:33.339Z,27.01
2022-08-10T19:09:45.725Z,26.93
2022-08-10T19:12:37.095Z,26.77
2022-08-10T19:15:22.591Z,26.61
2022-08-10T19:18:08.002Z,26.56
2022-08-10T19:20:51.089Z,26.53
2022-08-10T19:23:40.633Z,26.45
2022-08-10T19:26:43.723Z,26.20
2022-08-10T19:30:09.983Z,26.14
2022-08-10T19:32:46.799Z,26.09
2022-08-10T19:35:32.757Z,26.02
2022-08-10T19:38:16.633Z,25.86
2022-08-10T19:41:09.661Z,25.77
2022-08-10T19:44:00.217Z,25.71
2022-08-10T19:46:41.656Z,25.61
2022-08-10T19:49:25.156Z,25.55
2022-08-10T19:52:10.687Z,25.45
2022-08-10T19:54:56.819Z,25.41
2022-08-10T19:57:36.620Z,25.33
2022-08-10T20:00:19.373Z,25.23
2022-08-10T20:03:10.842Z,25.10
2022-08-10T20:06:13.241Z,25.02
2022-08-10T20:08:56.707Z,24.96
2022-08-10T20:11:46.406Z,24.84
2022-08-10T20:14:23.579Z,24.81
2022-08-10T20:17:01.655Z,24.71
2022-08-10T20:19:53.888Z,24.63
2022-08-10T20:22:30.435Z,24.55
2022-08-10T20:25:13.931Z,24.46
2022-08-10T20:28:00.201Z,24.36
2022-08-10T20:30:34.439Z,24.31
2022-08-10T20:33:11.577Z,24.25
2022-08-10T20:35:50.830Z,24.17
2022-08-10T20:38:29.043Z,24.06
2022-08-10T20:41:16.101Z,24.06
2022-08-10T20:44:01.442Z,23.94
2022-08-10T20:46:43.725Z,23.80
2022-08-10T20:49:32.286Z,23.67
2022-08-10T20:52:04.746Z,23.65
2022-08-10T20:54:50.970Z,23.52
2022-08-10T20:57:54.947Z,23.46
2022-08-10T21:00:31.848Z,23.41
2022-08-10T21:03:33.810Z,23.34
2022-08-10T21:06:44.534Z,23.24
2022-08-10T21:09:50.044Z,23.16
2022-08-10T21:12:54.863Z,23.12
2022-08-10T21:15:43.572Z,23.07
2022-08-10T21:18:44.088Z,22.95
2022-08-10T21:21:41.724Z,22.83
2022-08-10T21:24:22.765Z,22.79
2022-08-10T21:27:08.199Z,22.75
2022-08-10T21:29:56.079Z,22.70
2022-08-10T21:32:44.447Z,22.60
2022-08-10T21:35:38.382Z,22.46
2022-08-10T21:38:24.322Z,22.47
2022-08-10T21:41:57.933Z,22.46
2022-08-10T21:45:16.726Z,22.36
2022-08-10T21:48:30.287Z,22.32
2022-08-10T21:52:01.819Z,22.08
2022-08-10T21:54:42.397Z,22.02
2022-08-10T21:57:43.739Z,21.99
2022-08-10T22:00:34.150Z,21.83
2022-08-10T22:03:24.291Z,21.89
2022-08-10T22:06:16.862Z,21.86
2022-08-10T22:09:17.802Z,21.77
2022-08-10T22:12:30.871Z,21.69
2022-08-10T22:16:03.499Z,21.67
2022-08-10T22:18:39.973Z,21.66
2022-08-10T22:21:58.884Z,21.58
2022-08-10T22:25:16.705Z,21.49
2022-08-10T22:28:13.236Z,21.37
2022-08-10T22:34:39.347Z,21.26
2022-08-10T22:37:47.034Z,21.07
2022-08-10T22:40:39.709Z,20.93
2022-08-10T22:43:35.431Z,20.92
2022-08-10T22:46:36.323Z,20.96
2022-08-10T22:49:04.030Z,20.93
2022-08-10T22:51:53.902Z,20.83
2022-08-10T22:54:50.081Z,20.77
2022-08-10T22:57:37.409Z,20.72
2022-08-10T23:00:17.589Z,20.68
2022-08-10T23:02:56.769Z,20.57
2022-08-10T23:05:35.887Z,20.49
2022-08-10T23:08:30.084Z,20.48
2022-08-10T23:11:07.588Z,20.49
2022-08-10T23:13:41.778Z,20.44
2022-08-10T23:16:39.589Z,20.42
2022-08-10T23:19:16.992Z,20.28
2022-08-10T23:22:03.854Z,20.29
2022-08-10T23:24:39.101Z,20.23
2022-08-10T23:27:38.867Z,20.12
2022-08-10T23:30:17.680Z,20.14
2022-08-10T23:32:52.892Z,20.10
2022-08-10T23:36:13.020Z,20.08
2022-08-10T23:38:17.844Z,20.02
2022-08-10T23:40:50.564Z,19.87
2022-08-10T23:43:46.815Z,19.82
2022-08-10T23:46:18.413Z,19.72
2022-08-10T23:48:53.593Z,19.71
2022-08-10T23:51:38.932Z,19.63
2022-08-10T23:54:24.000Z,19.55
2022-08-10T23:57:01.460Z,19.49
2022-08-10T23:59:34.898Z,19.46
